createdAt,value
2019-04-20T00:01:01.544Z,33.33
2019-04-20T00:03:38.307Z,35.05
2019-04-20T00:06:06.974Z,30.00
2019-04-20T00:08:41.496Z,37.90
2019-04-20T00:11:19.756Z,35.75
2019-04-20T00:13:55.232Z,40.35
2019-04-20T00:16:18.922Z,42.55
2019-04-20T00:18:53.949Z,33.00
2019-04-20T00:21:49.615Z,30.97
2019-04-20T00:24:23.353Z,34.27
2019-04-20T00:29:47.944Z,32.30
2019-04-20T00:32:11.219Z,30.50
2019-04-20T00:34:35.612Z,32.30
2019-04-20T00:37:05.848Z,40.60
2019-04-20T00:39:38.251Z,41.45
2019-04-20T00:42:11.711Z,32.60
2019-04-20T00:44:45.774Z,27.95
2019-04-20T00:47:32.368Z,35.40
2019-04-20T00:50:04.056Z,28.12
2019-04-20T00:52:32.854Z,32.88
2019-04-20T00:54:53.957Z,38.38
2019-04-20T00:57:36.879Z,30.80
2019-04-20T01:00:17.660Z,32.60
2019-04-20T01:02:43.342Z,46.70
2019-04-20T01:05:22.887Z,47.25
2019-04-20T01:07:48.529Z,35.63
2019-04-20T01:10:17.304Z,32.55
2019-04-20T01:12:52.083Z,34.33
2019-04-20T01:15:28.101Z,32.50
2019-04-20T01:17:54.490Z,36.75
2019-04-20T01:20:26.364Z,39.95
2019-04-20T01:23:06.343Z,25.92
2019-04-20T01:25:36.015Z,20.72
2019-04-20T01:28:24.582Z,25.55
2019-04-20T01:30:44.625Z,25.23
2019-04-20T01:33:25.912Z,18.20
2019-04-20T01:35:58.284Z,19.75
2019-04-20T01:38:38.851Z,20.88
2019-04-20T01:40:52.715Z,19.82
2019-04-20T01:43:24.749Z,17.52
2019-04-20T01:46:05.117Z,16.75
2019-04-20T01:48:34.022Z,19.60
2019-04-20T01:51:11.815Z,14.47
2019-04-20T01:53:46.712Z,13.40
2019-04-20T01:56:24.490Z,21.20
2019-04-20T01:59:06.263Z,18.60
2019-04-20T02:01:30.913Z,16.45
2019-04-20T02:04:07.347Z,12.40
2019-04-20T02:06:48.845Z,12.78
2019-04-20T02:09:20.473Z,20.88
2019-04-20T02:11:50.853Z,22.65
2019-04-20T02:14:30.788Z,23.65
2019-04-20T02:17:04.437Z,23.45
2019-04-20T02:19:43.114Z,24.23
2019-04-20T02:22:14.932Z,22.02
2019-04-20T02:24:32.512Z,22.20
2019-04-20T02:27:04.178Z,15.93
2019-04-20T02:30:02.504Z,16.20
2019-04-20T02:32:36.495Z,19.98
2019-04-20T02:35:29.908Z,19.07
2019-04-20T02:40:50.907Z,16.48
2019-04-20T02:43:40.477Z,18.90
2019-04-20T02:45:44.250Z,23.27
2019-04-20T02:48:23.595Z,16.52
2019-04-20T02:50:59.657Z,30.52
2019-04-20T02:53:31.048Z,24.05
2019-04-20T02:56:09.045Z,11.60
2019-04-20T02:58:36.382Z,22.50
2019-04-20T03:01:09.617Z,17.32
2019-04-20T03:03:30.688Z,23.67
2019-04-20T03:06:08.656Z,19.02
2019-04-20T03:08:54.526Z,20.12
2019-04-20T03:11:26.217Z,24.12
2019-04-20T03:13:54.561Z,19.82
2019-04-20T03:16:24.273Z,20.52
2019-04-20T03:18:58.435Z,20.68
2019-04-20T03:21:37.588Z,22.48
2019-04-20T03:24:13.214Z,27.85
2019-04-20T03:26:40.784Z,18.82
2019-04-20T03:29:12.843Z,21.05
2019-04-20T03:32:28.825Z,23.77
2019-04-20T03:35:01.075Z,22.20
2019-04-20T03:37:07.072Z,22.15
2019-04-20T03:39:32.458Z,25.90
2019-04-20T03:41:50.271Z,21.33
2019-04-20T03:44:24.403Z,26.90
2019-04-20T03:46:58.048Z,17.27
2019-04-20T03:49:55.052Z,17.35
2019-04-20T03:52:27.480Z,32.93
2019-04-20T03:54:57.097Z,32.05
2019-04-20T03:57:49.820Z,25.48
2019-04-20T04:00:23.278Z,27.55
2019-04-20T04:03:12.604Z,17.02
2019-04-20T04:05:36.865Z,31.12
2019-04-20T04:08:03.145Z,27.05
2019-04-20T04:10:47.177Z,23.02
2019-04-20T04:13:07.276Z,25.08
2019-04-20T04:15:44.274Z,18.85
2019-04-20T04:18:19.691Z,26.80
2019-04-20T04:20:52.147Z,15.75
2019-04-20T04:23:38.051Z,23.47
2019-04-20T04:28:41.079Z,22.42
2019-04-20T04:31:16.389Z,17.02
2019-04-20T04:33:55.819Z,21.55
2019-04-20T04:36:20.811Z,20.37
2019-04-20T04:39:05.413Z,21.25
2019-04-20T04:41:35.477Z,17.42
2019-04-20T04:44:04.468Z,24.43
2019-04-20T04:46:19.109Z,23.45
2019-04-20T04:48:52.879Z,33.00
2019-04-20T04:51:29.451Z,23.92
2019-04-20T04:54:03.685Z,21.05
2019-04-20T04:56:30.854Z,21.80
2019-04-20T04:59:02.721Z,21.35
2019-04-20T05:01:37.005Z,14.87
2019-04-20T05:04:24.779Z,20.30
2019-04-20T05:06:53.537Z,19.05
2019-04-20T05:09:15.432Z,25.27
2019-04-20T05:11:51.767Z,23.20
2019-04-20T05:14:24.424Z,18.30
2019-04-20T05:17:10.163Z,36.35
2019-04-20T05:19:50.065Z,23.85
2019-04-20T05:22:23.002Z,28.70
2019-04-20T05:25:03.489Z,25.35
2019-04-20T05:27:44.055Z,20.55
2019-04-20T05:29:54.928Z,27.40
2019-04-20T05:32:36.137Z,27.80
2019-04-20T05:35:24.064Z,20.97
2019-04-20T05:38:02.706Z,36.88
2019-04-20T05:40:27.505Z,38.13
2019-04-20T05:43:15.501Z,34.85
2019-04-20T05:45:46.335Z,37.53
2019-04-20T05:48:19.467Z,29.52
2019-04-20T05:50:58.721Z,28.73
2019-04-20T05:53:44.380Z,31.02
2019-04-20T05:56:17.386Z,30.15
2019-04-20T05:58:49.413Z,29.80
2019-04-20T06:01:34.606Z,32.38
2019-04-20T06:03:57.712Z,32.67
2019-04-20T06:06:37.579Z,30.70
2019-04-20T06:09:22.638Z,27.93
2019-04-20T06:12:03.769Z,29.95
2019-04-20T06:14:33.106Z,28.00
2019-04-20T06:17:23.857Z,31.50
2019-04-20T06:19:58.256Z,33.65
2019-04-20T06:22:31.120Z,27.30
2019-04-20T06:25:19.590Z,32.88
2019-04-20T06:27:41.075Z,33.20
2019-04-20T06:30:05.916Z,27.82
2019-04-20T06:33:34.240Z,26.12
2019-04-20T06:38:52.314Z,33.42
2019-04-20T06:41:14.046Z,32.00
2019-04-20T06:43:42.075Z,34.73
2019-04-20T06:46:09.555Z,32.08
2019-04-20T06:48:45.812Z,29.65
2019-04-20T06:51:18.681Z,44.03
2019-04-20T06:53:49.953Z,38.35
2019-04-20T06:56:35.400Z,27.70
2019-04-20T06:59:12.611Z,24.35
2019-04-20T07:01:48.705Z,29.50
2019-04-20T07:04:37.631Z,30.55
2019-04-20T07:06:59.205Z,30.57
2019-04-20T07:09:30.905Z,28.10
2019-04-20T07:11:50.594Z,23.45
2019-04-20T07:14:17.269Z,30.37
2019-04-20T07:17:07.186Z,32.58
2019-04-20T07:19:44.461Z,25.72
2019-04-20T07:22:32.143Z,22.48
2019-04-20T07:25:06.465Z,27.35
2019-04-20T07:27:30.804Z,29.25
2019-04-20T07:30:04.106Z,29.92
2019-04-20T07:32:43.812Z,32.23
2019-04-20T07:35:08.397Z,28.27
2019-04-20T07:40:33.331Z,33.70
2019-04-20T07:43:01.575Z,21.70
2019-04-20T07:45:35.087Z,25.35
2019-04-20T07:48:11.491Z,33.60
2019-04-20T07:50:35.791Z,26.10
2019-04-20T07:53:12.228Z,27.00
2019-04-20T07:55:56.352Z,24.05
2019-04-20T07:58:17.203Z,23.27
2019-04-20T08:01:07.845Z,28.10
2019-04-20T08:03:39.072Z,29.60
2019-04-20T08:06:14.492Z,23.55
2019-04-20T08:08:53.130Z,23.30
2019-04-20T08:11:32.163Z,25.40
2019-04-20T08:14:14.535Z,33.38
2019-04-20T08:16:47.082Z,22.40
2019-04-20T08:19:10.481Z,22.27
2019-04-20T08:21:47.289Z,22.82
2019-04-20T08:24:17.627Z,28.52
2019-04-20T08:26:41.353Z,31.65
2019-04-20T08:29:29.089Z,26.50
2019-04-20T08:32:25.964Z,34.60
2019-04-20T08:34:59.446Z,38.60
2019-04-20T08:37:34.401Z,38.55
2019-04-20T08:40:07.467Z,41.83
2019-04-20T08:42:49.734Z,48.15
2019-04-20T08:45:20.143Z,37.80
2019-04-20T08:47:49.995Z,23.40
2019-04-20T08:53:11.163Z,28.30
2019-04-20T08:55:26.331Z,29.37
2019-04-20T08:57:39.986Z,47.85
2019-04-20T09:02:51.647Z,40.43
2019-04-20T09:05:32.625Z,21.62
2019-04-20T09:08:00.535Z,31.80
2019-04-20T09:10:42.405Z,25.90
2019-04-20T09:13:08.366Z,24.60
2019-04-20T09:15:29.977Z,27.95
2019-04-20T09:18:20.780Z,17.40
2019-04-20T09:20:48.478Z,20.40
2019-04-20T09:23:26.608Z,24.70
2019-04-20T09:26:06.224Z,22.73
2019-04-20T09:28:32.073Z,18.57
2019-04-20T09:31:11.915Z,17.40
2019-04-20T09:34:02.767Z,17.07
2019-04-20T09:36:42.007Z,20.48
2019-04-20T09:39:17.700Z,16.90
2019-04-20T09:42:01.439Z,15.10
2019-04-20T09:44:37.523Z,15.70
2019-04-20T09:47:07.364Z,13.50
2019-04-20T09:49:52.913Z,10.03
2019-04-20T09:52:28.272Z,30.05
2019-04-20T09:54:58.951Z,22.62
2019-04-20T09:57:41.039Z,18.98
2019-04-20T10:00:05.394Z,19.67
2019-04-20T10:02:29.285Z,27.58
2019-04-20T10:05:01.907Z,20.23
2019-04-20T10:07:35.619Z,20.72
2019-04-20T10:10:21.705Z,12.18
2019-04-20T10:12:43.950Z,15.28
2019-04-20T10:15:19.464Z,12.90
2019-04-20T10:17:49.786Z,12.47
2019-04-20T10:20:28.357Z,32.75
2019-04-20T10:22:54.423Z,25.57
2019-04-20T10:25:26.667Z,24.15
2019-04-20T10:27:57.981Z,23.67
2019-04-20T10:33:03.560Z,35.73
2019-04-20T10:35:36.945Z,27.42
2019-04-20T10:38:31.077Z,22.15
2019-04-20T10:41:12.652Z,25.05
2019-04-20T10:43:36.789Z,28.90
2019-04-20T10:46:10.983Z,21.87
2019-04-20T10:48:48.021Z,42.58
2019-04-20T10:51:15.611Z,54.20
2019-04-20T10:53:48.392Z,41.08
2019-04-20T10:56:21.203Z,50.10
2019-04-20T10:58:53.825Z,34.48
2019-04-20T11:03:56.621Z,115.57
2019-04-20T11:06:28.942Z,18.07
2019-04-20T11:09:00.449Z,16.00
2019-04-20T11:11:35.328Z,32.17
2019-04-20T11:14:14.446Z,23.52
2019-04-20T11:16:42.456Z,33.13
2019-04-20T11:19:13.691Z,14.53
2019-04-20T11:21:48.723Z,11.40
2019-04-20T11:24:20.498Z,16.48
2019-04-20T11:29:24.240Z,33.83
2019-04-20T11:31:56.490Z,30.35
2019-04-20T11:34:33.293Z,40.10
2019-04-20T11:37:01.524Z,54.33
2019-04-20T11:39:34.916Z,48.48
2019-04-20T11:42:09.836Z,35.85
2019-04-20T11:44:42.179Z,37.42
2019-04-20T11:47:14.717Z,39.10
2019-04-20T11:49:46.047Z,19.90
2019-04-20T11:52:20.292Z,14.70
2019-04-20T11:54:50.589Z,13.80
2019-04-20T11:57:22.052Z,25.88
2019-04-20T11:59:57.082Z,30.62
2019-04-20T12:02:37.128Z,29.67
2019-04-20T12:05:21.521Z,29.18
2019-04-20T12:07:55.415Z,22.82
2019-04-20T12:10:28.330Z,27.45
2019-04-20T12:13:03.840Z,34.83
2019-04-20T12:15:37.462Z,16.85
2019-04-20T12:18:09.517Z,18.57
2019-04-20T12:20:42.928Z,24.40
2019-04-20T12:23:14.230Z,29.18
2019-04-20T12:25:46.308Z,31.93
2019-04-20T12:28:17.979Z,10.68
2019-04-20T12:30:49.198Z,21.00
2019-04-20T12:33:21.853Z,34.85
2019-04-20T12:35:54.201Z,43.68
2019-04-20T12:38:25.491Z,27.25
2019-04-20T12:40:57.801Z,33.83
2019-04-20T12:43:29.878Z,36.95
2019-04-20T12:48:35.590Z,32.38
2019-04-20T12:51:08.479Z,50.03
2019-04-20T12:53:40.536Z,37.48
2019-04-20T12:56:12.813Z,44.95
2019-04-20T12:58:45.153Z,40.63
2019-04-20T13:01:19.326Z,40.28
2019-04-20T13:03:49.935Z,33.08
2019-04-20T13:06:21.721Z,20.12
2019-04-20T13:08:56.837Z,38.80
2019-04-20T13:11:34.709Z,38.50
2019-04-20T13:14:48.566Z,31.33
2019-04-20T13:17:22.068Z,23.77
2019-04-20T13:19:53.440Z,24.47
2019-04-20T13:22:25.357Z,27.35
2019-04-20T13:27:29.162Z,37.23
2019-04-20T13:30:01.273Z,53.58
2019-04-20T13:32:33.987Z,36.65
2019-04-20T13:35:08.013Z,40.67
2019-04-20T13:37:41.755Z,14.38
2019-04-20T13:40:13.623Z,12.65
2019-04-20T13:42:45.637Z,14.18
2019-04-20T13:45:19.085Z,10.10
2019-04-20T13:47:52.739Z,15.30
2019-04-20T13:50:26.251Z,19.17
2019-04-20T13:52:58.582Z,24.30
2019-04-20T13:55:30.235Z,25.48
2019-04-20T13:58:20.107Z,27.27
2019-04-20T14:00:57.248Z,34.35
2019-04-20T14:03:30.385Z,20.08
2019-04-20T14:06:02.634Z,14.40
2019-04-20T14:11:07.320Z,25.35
2019-04-20T14:13:47.155Z,12.70
2019-04-20T14:16:14.399Z,7.30
2019-04-20T14:21:18.492Z,18.23
2019-04-20T14:23:50.839Z,18.40
2019-04-20T14:26:22.991Z,26.23
2019-04-20T14:28:54.783Z,29.52
2019-04-20T14:31:26.163Z,35.52
2019-04-20T14:33:59.068Z,21.82
2019-04-20T14:36:30.782Z,18.67
2019-04-20T14:39:02.524Z,12.98
2019-04-20T14:41:36.041Z,12.45
2019-04-20T14:46:39.991Z,15.03
2019-04-20T14:51:41.965Z,26.15
2019-04-20T14:54:14.640Z,23.07
2019-04-20T14:56:45.787Z,26.10
2019-04-20T14:59:31.665Z,23.33
2019-04-20T15:02:10.497Z,14.25
2019-04-20T15:04:45.316Z,11.70
2019-04-20T15:07:16.779Z,13.45
2019-04-20T15:09:50.914Z,25.52
2019-04-20T15:12:36.567Z,27.75
2019-04-20T15:15:08.462Z,19.32
2019-04-20T15:17:51.389Z,16.67
2019-04-20T15:20:25.540Z,21.50
2019-04-20T15:22:59.315Z,27.60
2019-04-20T15:25:31.681Z,23.77
2019-04-20T15:28:02.998Z,21.62
2019-04-20T15:30:34.447Z,15.03
2019-04-20T15:33:07.175Z,29.92
2019-04-20T15:35:38.369Z,19.73
2019-04-20T15:38:11.129Z,22.07
2019-04-20T15:40:42.399Z,18.77
2019-04-20T15:43:17.986Z,19.45
2019-04-20T15:45:47.547Z,33.65
2019-04-20T15:48:19.898Z,16.50
2019-04-20T15:50:51.874Z,20.43
2019-04-20T15:53:23.892Z,19.30
2019-04-20T15:55:57.583Z,14.18
2019-04-20T15:58:30.160Z,18.20
2019-04-20T16:01:02.748Z,21.65
2019-04-20T16:03:39.276Z,20.12
2019-04-20T16:06:13.694Z,22.77
2019-04-20T16:08:48.082Z,20.08
2019-04-20T16:11:19.468Z,12.30
2019-04-20T16:13:53.923Z,14.47
2019-04-20T16:16:23.837Z,8.40
2019-04-20T16:18:56.982Z,14.00
2019-04-20T16:21:32.030Z,17.42
2019-04-20T16:24:04.321Z,14.50
2019-04-20T16:26:47.458Z,15.55
2019-04-20T16:29:19.933Z,11.43
2019-04-20T16:31:52.150Z,22.58
2019-04-20T16:34:23.430Z,15.60
2019-04-20T16:36:56.464Z,23.20
2019-04-20T16:39:28.316Z,12.23
2019-04-20T16:42:00.428Z,25.50
2019-04-20T16:44:31.581Z,12.85
2019-04-20T16:47:04.083Z,45.27
2019-04-20T16:49:35.394Z,30.15
2019-04-20T16:52:07.364Z,30.48
2019-04-20T16:54:39.768Z,30.02
2019-04-20T16:57:12.604Z,69.55
2019-04-20T16:59:48.278Z,39.35
2019-04-20T17:02:19.198Z,50.38
2019-04-20T17:04:52.027Z,41.18
2019-04-20T17:07:28.994Z,43.92
2019-04-20T17:10:00.563Z,34.92
2019-04-20T17:12:33.810Z,30.65
2019-04-20T17:15:09.926Z,11.95
2019-04-20T17:17:41.119Z,14.73
2019-04-20T17:20:13.998Z,10.95
2019-04-20T17:22:48.815Z,16.13
2019-04-20T17:25:24.134Z,16.82
2019-04-20T17:28:04.640Z,14.05
2019-04-20T17:30:54.947Z,15.78
2019-04-20T17:33:32.572Z,17.90
2019-04-20T17:36:14.528Z,21.05
2019-04-20T17:38:45.872Z,29.42
2019-04-20T17:41:36.222Z,23.98
2019-04-20T17:44:05.477Z,36.73
2019-04-20T17:46:35.753Z,26.07
2019-04-20T17:49:09.625Z,27.93
2019-04-20T17:51:54.841Z,28.00
2019-04-20T17:54:17.743Z,30.68
2019-04-20T17:56:52.002Z,54.60
2019-04-20T17:59:24.388Z,37.58
2019-04-20T18:02:25.679Z,44.05
2019-04-20T18:05:22.308Z,67.60
2019-04-20T18:07:45.341Z,49.70
2019-04-20T18:10:17.529Z,38.83
2019-04-20T18:12:41.862Z,46.58
2019-04-20T18:15:29.357Z,26.85
2019-04-20T18:18:00.256Z,49.10
2019-04-20T18:20:25.042Z,59.25
2019-04-20T18:22:57.323Z,40.58
2019-04-20T18:25:56.264Z,45.20
2019-04-20T18:28:14.594Z,47.27
2019-04-20T18:30:51.384Z,40.95
2019-04-20T18:33:18.845Z,35.17
2019-04-20T18:35:52.235Z,37.28
2019-04-20T18:38:30.529Z,44.00
2019-04-20T18:41:05.785Z,62.27
2019-04-20T18:43:43.914Z,48.17
2019-04-20T18:46:21.695Z,58.78
2019-04-20T18:49:03.530Z,84.75
2019-04-20T18:51:13.495Z,88.80
2019-04-20T18:53:48.231Z,98.42
2019-04-20T18:56:25.637Z,96.30
2019-04-20T18:58:53.345Z,107.43
2019-04-20T19:01:31.938Z,77.42
2019-04-20T19:04:03.673Z,78.95
2019-04-20T19:06:38.131Z,37.23
2019-04-20T19:09:16.680Z,48.00
2019-04-20T19:11:50.862Z,89.03
2019-04-20T19:14:38.252Z,86.85
2019-04-20T19:17:40.421Z,68.00
2019-04-20T19:20:08.600Z,62.50
2019-04-20T19:22:41.935Z,54.70
2019-04-20T19:25:18.310Z,67.45
2019-04-20T19:27:53.555Z,71.65
2019-04-20T19:30:31.213Z,51.73
2019-04-20T19:33:11.360Z,36.53
2019-04-20T19:35:40.441Z,31.50
2019-04-20T19:38:10.271Z,43.23
2019-04-20T19:40:47.803Z,42.85
2019-04-20T19:43:20.811Z,39.13
2019-04-20T19:46:25.580Z,49.67
2019-04-20T19:48:29.238Z,63.45
2019-04-20T19:51:12.768Z,52.78
2019-04-20T19:53:42.940Z,45.43
2019-04-20T19:56:07.757Z,34.80
2019-04-20T19:58:39.708Z,28.15
2019-04-20T20:01:03.586Z,49.85
2019-04-20T20:03:37.605Z,30.02
2019-04-20T20:06:18.555Z,30.25
2019-04-20T20:08:55.244Z,37.00
2019-04-20T20:11:29.526Z,35.95
2019-04-20T20:13:57.065Z,27.80
2019-04-20T20:16:50.678Z,31.23
2019-04-20T20:19:13.313Z,39.60
2019-04-20T20:21:54.452Z,38.45
2019-04-20T20:24:14.262Z,46.02
2019-04-20T20:26:52.556Z,47.95
2019-04-20T20:29:25.098Z,49.88
2019-04-20T20:32:05.212Z,47.27
2019-04-20T20:34:32.427Z,61.80
2019-04-20T20:37:00.585Z,61.45
2019-04-20T20:39:34.402Z,69.60
2019-04-20T20:42:15.167Z,49.55
2019-04-20T20:44:45.765Z,59.38
2019-04-20T20:47:39.799Z,50.08
2019-04-20T20:50:11.301Z,57.20
2019-04-20T20:52:32.383Z,71.65
2019-04-20T20:55:00.764Z,73.60
2019-04-20T20:57:24.797Z,88.55
2019-04-20T21:00:02.452Z,84.28
2019-04-20T21:02:40.169Z,64.12
2019-04-20T21:05:01.918Z,55.85
2019-04-20T21:10:08.299Z,64.05
2019-04-20T21:12:49.360Z,69.72
2019-04-20T21:15:20.995Z,71.02
2019-04-20T21:18:08.386Z,69.95
2019-04-20T21:20:46.537Z,78.60
2019-04-20T21:23:11.590Z,81.08
2019-04-20T21:25:36.104Z,70.60
2019-04-20T21:28:02.666Z,64.07
2019-04-20T21:30:42.780Z,45.28
2019-04-20T21:33:09.773Z,47.17
2019-04-20T21:35:46.404Z,77.37
2019-04-20T21:38:16.526Z,45.45
2019-04-20T21:40:51.305Z,52.83
2019-04-20T21:43:27.871Z,35.03
2019-04-20T21:45:59.728Z,63.68
2019-04-20T21:48:49.285Z,44.10
2019-04-20T21:51:15.253Z,60.50
2019-04-20T21:53:35.331Z,37.55
2019-04-20T21:56:07.999Z,43.40
2019-04-20T21:58:43.640Z,40.23
2019-04-20T22:01:24.314Z,41.55
2019-04-20T22:03:48.045Z,18.23
2019-04-20T22:06:20.283Z,23.42
2019-04-20T22:08:59.793Z,52.78
2019-04-20T22:11:25.962Z,47.17
2019-04-20T22:14:02.189Z,36.15
2019-04-20T22:16:37.800Z,39.25
2019-04-20T22:19:16.019Z,55.65
2019-04-20T22:21:50.225Z,54.35
2019-04-20T22:24:28.744Z,39.40
2019-04-20T22:26:54.922Z,40.95
2019-04-20T22:29:16.251Z,36.00
2019-04-20T22:31:56.738Z,38.98
2019-04-20T22:34:24.573Z,34.03
2019-04-20T22:36:53.866Z,43.30
2019-04-20T22:39:33.653Z,43.87
2019-04-20T22:42:05.645Z,45.65
2019-04-20T22:44:34.355Z,34.98
2019-04-20T22:47:12.405Z,39.05
2019-04-20T22:49:51.476Z,44.90
2019-04-20T22:52:26.950Z,50.45
2019-04-20T22:55:01.287Z,49.67
2019-04-20T22:57:31.808Z,51.10
2019-04-20T23:00:00.598Z,40.85
2019-04-20T23:02:24.892Z,36.73
2019-04-20T23:04:57.089Z,39.20
2019-04-20T23:07:28.535Z,46.75
2019-04-20T23:10:01.992Z,45.17
2019-04-20T23:12:34.047Z,44.18
2019-04-20T23:15:08.198Z,44.45
2019-04-20T23:17:43.392Z,45.35
2019-04-20T23:20:21.105Z,46.63
2019-04-20T23:22:49.376Z,47.33
2019-04-20T23:25:20.954Z,58.65
2019-04-20T23:28:00.552Z,63.40
2019-04-20T23:30:30.217Z,45.15
2019-04-20T23:32:58.007Z,49.13
2019-04-20T23:35:30.370Z,45.25
2019-04-20T23:38:10.454Z,49.85
2019-04-20T23:40:35.299Z,40.63
2019-04-20T23:43:15.282Z,50.75
2019-04-20T23:45:52.942Z,51.18
2019-04-20T23:48:34.879Z,36.63
2019-04-20T23:51:25.002Z,38.38
2019-04-20T23:53:49.205Z,50.20
2019-04-20T23:56:07.908Z,43.98
2019-04-20T23:58:44.495Z,47.13
